Time;durP1;ratioP1;P1;durP2;ratioP2;P2;SDS_P1;SDS_P2;PMS_P1;PMS_P2;Temp;Humidity;BMP_temperature;BMP_pressure;BME280_temperature;BME280_humidity;BME280_pressure;Samples;Min_cycle;Max_cycle;Signal;HPM_P1;HPM_P2
2022/01/09 00:02:24;;;;;;;13.50;6.85;;;;;;;1.08;100.00;94993.25;5000971;28;20041;-65
2022/01/09 00:04:50;;;;;;;11.20;5.57;;;;;;;1.09;100.00;95002.88;5007547;28;20419;-65
2022/01/09 00:07:16;;;;;;;10.27;5.43;;;;;;;1.11;100.00;94991.75;4986124;28;20045;-65
2022/01/09 00:09:44;;;;;;;9.80;5.03;;;;;;;1.30;100.00;94988.38;5005618;28;20053;-64
2022/01/09 00:12:10;;;;;;;11.75;6.35;;;;;;;1.10;100.00;94988.28;4995678;28;20046;-64
2022/01/09 00:14:36;;;;;;;8.35;4.68;;;;;;;1.03;100.00;94979.25;5003701;28;20042;-64
2022/01/09 00:17:01;;;;;;;11.77;5.57;;;;;;;1.05;100.00;94966.19;5002774;28;20407;-65
2022/01/09 00:19:28;;;;;;;16.65;5.00;;;;;;;1.11;100.00;94965.56;4998950;28;20041;-63
2022/01/09 00:21:53;;;;;;;12.90;6.60;;;;;;;1.12;100.00;94950.19;5004494;28;20045;-64
2022/01/09 00:24:19;;;;;;;11.15;4.72;;;;;;;1.05;100.00;94952.72;4993135;28;20065;-63
2022/01/09 00:26:44;;;;;;;7.47;4.38;;;;;;;0.92;100.00;94960.88;4998165;28;20124;-64
2022/01/09 00:29:10;;;;;;;8.43;4.47;;;;;;;0.85;100.00;94962.63;4997291;28;20042;-64
2022/01/09 00:31:36;;;;;;;8.55;4.15;;;;;;;0.89;100.00;94969.66;4983861;28;20038;-65
2022/01/09 00:34:02;;;;;;;11.68;5.93;;;;;;;0.95;100.00;94973.69;4981102;28;20062;-63
2022/01/09 00:36:27;;;;;;;11.02;6.35;;;;;;;1.00;100.00;94972.63;4960323;28;20057;-64
2022/01/09 00:38:53;;;;;;;7.18;4.40;;;;;;;1.06;100.00;94976.63;4996728;28;20064;-62
2022/01/09 00:41:18;;;;;;;11.57;5.55;;;;;;;1.04;100.00;94972.72;4986197;28;20042;-64
2022/01/09 00:43:44;;;;;;;17.45;8.38;;;;;;;1.13;100.00;94974.13;5001377;28;20422;-63
2022/01/09 00:46:10;;;;;;;15.32;7.15;;;;;;;1.13;100.00;94968.72;4994306;28;20041;-63
2022/01/09 00:48:36;;;;;;;10.00;5.20;;;;;;;1.18;100.00;94962.28;5011548;28;20585;-65
2022/01/09 00:51:02;;;;;;;8.68;5.40;;;;;;;1.05;100.00;94963.50;5005754;28;20044;-64
2022/01/09 00:53:27;;;;;;;10.48;5.38;;;;;;;0.92;100.00;94946.63;4995446;28;20393;-64
2022/01/09 00:55:53;;;;;;;11.00;5.22;;;;;;;0.75;100.00;94951.19;5008075;28;20038;-62
2022/01/09 00:58:18;;;;;;;8.15;5.03;;;;;;;0.65;100.00;94945.53;4993540;28;20056;-63
2022/01/09 01:00:44;;;;;;;9.23;5.05;;;;;;;0.81;100.00;94938.28;5001926;28;20073;-64
2022/01/09 01:03:10;;;;;;;7.05;4.50;;;;;;;0.87;100.00;94926.09;4992916;28;20034;-62
2022/01/09 01:05:35;;;;;;;10.20;5.07;;;;;;;0.73;100.00;94910.34;4998655;28;20487;-63
2022/01/09 01:08:01;;;;;;;9.88;5.72;;;;;;;0.34;100.00;94904.75;4998909;28;20049;-65
2022/01/09 01:10:27;;;;;;;7.45;4.78;;;;;;;-0.02;100.00;94887.63;4980222;28;20042;-65
2022/01/09 01:12:52;;;;;;;8.18;5.57;;;;;;;-0.14;100.00;94901.13;4997576;28;20038;-62
2022/01/09 01:15:18;;;;;;;10.63;5.78;;;;;;;-0.10;100.00;94895.84;4994558;28;20046;-63
2022/01/09 01:17:44;;;;;;;13.13;5.40;;;;;;;0.22;100.00;94902.13;4999416;28;20045;-63
2022/01/09 01:20:11;;;;;;;8.77;5.72;;;;;;;0.45;100.00;94893.44;4992642;28;20125;-63
2022/01/09 01:22:37;;;;;;;11.07;6.22;;;;;;;0.60;100.00;94905.41;4999952;28;20050;-64
2022/01/09 01:25:05;;;;;;;12.40;6.30;;;;;;;0.72;100.00;94905.28;4993275;28;20133;-64
2022/01/09 01:27:30;;;;;;;12.15;5.60;;;;;;;0.64;100.00;94907.03;4996674;28;20047;-64
2022/01/09 01:29:56;;;;;;;10.68;6.25;;;;;;;0.74;100.00;94921.94;4999173;28;20518;-62
2022/01/09 01:32:22;;;;;;;9.93;5.95;;;;;;;0.85;100.00;94919.50;4994239;28;20621;-62
2022/01/09 01:34:48;;;;;;;8.80;5.00;;;;;;;0.81;100.00;94924.00;4995861;28;20034;-62
2022/01/09 01:37:14;;;;;;;6.53;4.63;;;;;;;0.89;100.00;94931.16;4995159;28;20483;-63
2022/01/09 01:39:39;;;;;;;8.02;4.45;;;;;;;0.95;100.00;94937.81;4982832;28;20053;-62
2022/01/09 01:42:05;;;;;;;5.95;4.30;;;;;;;1.05;100.00;94931.94;4993121;28;20142;-65
2022/01/09 01:44:45;;;;;;;7.15;4.75;;;;;;;1.07;100.00;94942.38;4999796;28;20045;-62
2022/01/09 01:47:13;;;;;;;6.32;4.75;;;;;;;1.13;100.00;94922.88;4994151;28;20046;-62
2022/01/09 01:49:40;;;;;;;9.10;4.57;;;;;;;0.89;100.00;94921.13;5005276;28;20132;-63
2022/01/09 01:52:08;;;;;;;6.63;4.40;;;;;;;0.77;100.00;94921.22;4988957;28;20046;-61
2022/01/09 01:54:33;;;;;;;8.65;4.10;;;;;;;0.75;100.00;94929.63;4996754;28;20053;-63
2022/01/09 01:56:59;;;;;;;9.23;4.13;;;;;;;0.86;100.00;94929.91;4998350;28;20038;-63
2022/01/09 01:59:25;;;;;;;6.38;4.60;;;;;;;0.93;100.00;94932.78;4992260;28;20045;-63
2022/01/09 02:01:51;;;;;;;6.20;4.72;;;;;;;1.07;100.00;94926.19;4998338;28;20422;-64
2022/01/09 02:04:16;;;;;;;7.03;4.50;;;;;;;0.90;100.00;94922.72;4992123;28;20057;-63
2022/01/09 02:06:42;;;;;;;8.73;4.75;;;;;;;0.79;100.00;94951.28;5004723;28;20052;-64
2022/01/09 02:09:08;;;;;;;5.72;4.53;;;;;;;0.75;100.00;94945.81;5000214;28;20426;-62
2022/01/09 02:11:34;;;;;;;6.25;5.05;;;;;;;0.78;100.00;94938.97;4998674;28;20041;-63
2022/01/09 02:14:00;;;;;;;9.82;5.40;;;;;;;0.60;100.00;94937.72;5002861;28;20070;-64
2022/01/09 02:16:26;;;;;;;7.25;4.90;;;;;;;0.50;100.00;94930.91;4994257;28;20052;-64
2022/01/09 02:18:52;;;;;;;8.23;5.65;;;;;;;0.44;100.00;94929.63;4985914;28;20510;-63
2022/01/09 02:21:18;;;;;;;7.15;4.97;;;;;;;0.39;100.00;94925.25;4981044;28;20066;-64
2022/01/09 02:23:47;;;;;;;8.70;5.50;;;;;;;0.43;100.00;94925.34;4985502;28;20045;-63
2022/01/09 02:26:17;;;;;;;6.47;4.20;;;;;;;0.69;100.00;94924.88;4985734;28;20076;-63
2022/01/09 02:28:43;;;;;;;7.15;3.90;;;;;;;0.90;100.00;94920.03;4988534;28;20070;-64
2022/01/09 02:31:09;;;;;;;4.20;3.25;;;;;;;1.09;100.00;94913.91;4980432;28;20519;-64
2022/01/09 02:33:35;;;;;;;4.43;3.25;;;;;;;1.18;100.00;94919.13;5004539;28;20138;-64
2022/01/09 02:36:00;;;;;;;4.63;3.78;;;;;;;1.29;100.00;94922.06;5007227;28;20043;-62
2022/01/09 02:38:26;;;;;;;4.53;3.13;;;;;;;1.39;100.00;94937.72;4995519;28;20045;-63
2022/01/09 02:40:53;;;;;;;5.30;3.20;;;;;;;1.42;100.00;94938.94;5001216;28;20446;-64
2022/01/09 02:43:20;;;;;;;4.95;2.90;;;;;;;1.53;100.00;94943.44;4995248;28;20470;-62
2022/01/09 02:45:51;;;;;;;5.90;2.80;;;;;;;1.67;100.00;94939.50;5001312;28;20131;-64
2022/01/09 02:48:17;;;;;;;4.85;3.08;;;;;;;1.66;100.00;94946.81;4993242;28;20050;-63
2022/01/09 02:50:54;;;;;;;5.22;3.22;;;;;;;1.65;100.00;94941.75;5001226;28;20561;-64
2022/01/09 02:53:21;;;;;;;3.38;2.42;;;;;;;1.73;100.00;94943.50;4995191;28;20042;-64
2022/01/09 02:55:47;;;;;;;4.55;2.80;;;;;;;1.84;100.00;94944.50;5006026;28;20042;-66
2022/01/09 02:58:14;;;;;;;4.05;2.28;;;;;;;1.91;100.00;94949.28;5000639;28;20124;-64
2022/01/09 03:00:43;;;;;;;3.30;2.38;;;;;;;1.93;100.00;94941.59;5004853;28;20057;-64
2022/01/09 03:03:09;;;;;;;3.73;2.50;;;;;;;2.01;100.00;94940.59;4998590;28;20073;-64
2022/01/09 03:05:34;;;;;;;4.88;2.63;;;;;;;2.13;100.00;94938.94;5003594;28;20297;-64
2022/01/09 03:08:00;;;;;;;4.70;2.20;;;;;;;2.27;100.00;94945.38;4996803;28;20537;-64
2022/01/09 03:10:25;;;;;;;3.42;2.13;;;;;;;2.38;100.00;94951.00;4998234;28;20165;-63
2022/01/09 03:12:52;;;;;;;4.22;2.40;;;;;;;2.38;100.00;94951.00;4998336;28;20070;-64
2022/01/09 03:15:18;;;;;;;3.40;2.50;;;;;;;2.40;100.00;94943.31;4996091;28;20046;-64
2022/01/09 03:17:45;;;;;;;4.80;2.17;;;;;;;2.49;100.00;94945.81;5001696;28;20045;-64
2022/01/09 03:20:14;;;;;;;4.03;2.15;;;;;;;2.43;100.00;94947.22;4989949;28;20050;-63
2022/01/09 03:22:40;;;;;;;3.42;2.67;;;;;;;2.53;100.00;94949.34;4998726;28;20054;-66
2022/01/09 03:25:06;;;;;;;2.53;1.70;;;;;;;2.63;100.00;94943.38;5003409;28;20035;-62
2022/01/09 03:27:32;;;;;;;2.08;1.67;;;;;;;2.77;100.00;94953.66;5027907;28;20129;-65
2022/01/09 03:29:58;;;;;;;2.53;1.83;;;;;;;2.76;100.00;94954.81;5011989;28;20074;-64
2022/01/09 03:32:23;;;;;;;2.40;1.60;;;;;;;2.81;100.00;94957.22;4994464;28;20332;-64
2022/01/09 03:34:49;;;;;;;3.60;1.95;;;;;;;2.75;100.00;94968.66;4988642;28;20065;-62
2022/01/09 03:37:15;;;;;;;2.10;1.40;;;;;;;2.85;100.00;94960.75;5000821;28;20081;-64
2022/01/09 03:39:40;;;;;;;1.20;1.10;;;;;;;3.04;100.00;94972.66;5001387;28;20069;-64
2022/01/09 03:42:06;;;;;;;2.28;1.30;;;;;;;3.03;100.00;94971.13;4990807;28;20610;-64
2022/01/09 03:44:31;;;;;;;1.33;1.13;;;;;;;3.04;100.00;94973.47;4999798;28;20092;-64
2022/01/09 03:46:57;;;;;;;1.65;1.17;;;;;;;2.98;100.00;94966.78;5017658;28;20109;-64
2022/01/09 03:49:23;;;;;;;3.33;0.98;;;;;;;3.05;100.00;94963.41;4990674;28;20062;-63
2022/01/09 03:51:53;;;;;;;1.30;0.90;;;;;;;3.11;100.00;94958.47;5003053;28;20046;-63
2022/01/09 03:54:23;;;;;;;0.75;0.73;;;;;;;3.15;100.00;94959.31;4989845;28;20058;-63
2022/01/09 03:56:49;;;;;;;1.88;1.38;;;;;;;3.24;100.00;94966.06;4998477;28;20050;-62
2022/01/09 03:59:16;;;;;;;0.80;0.80;;;;;;;3.18;100.00;94964.78;4991649;28;20049;-63
2022/01/09 04:01:42;;;;;;;1.02;0.93;;;;;;;3.25;100.00;94940.56;4994804;28;20072;-63
2022/01/09 04:04:07;;;;;;;0.80;0.80;;;;;;;3.28;100.00;94954.50;4990773;28;20042;-62
2022/01/09 04:06:33;;;;;;;0.85;0.80;;;;;;;3.35;100.00;94949.19;5003869;28;20511;-63
2022/01/09 04:09:06;;;;;;;1.05;0.95;;;;;;;3.37;100.00;94952.34;4997522;28;20054;-63
2022/01/09 04:11:36;;;;;;;0.60;0.60;;;;;;;3.30;100.00;94950.31;4997475;28;20064;-64
2022/01/09 04:14:02;;;;;;;0.80;0.80;;;;;;;3.31;100.00;94970.78;4993955;28;20042;-64
2022/01/09 04:16:28;;;;;;;0.68;0.68;;;;;;;3.35;100.00;94965.44;4991434;28;20046;-62
2022/01/09 04:18:53;;;;;;;0.65;0.65;;;;;;;3.38;100.00;94967.44;5001961;28;20100;-63
2022/01/09 04:21:19;;;;;;;1.08;0.80;;;;;;;3.34;100.00;94964.66;4996414;28;20045;-64
2022/01/09 04:23:45;;;;;;;0.70;0.70;;;;;;;3.30;100.00;94973.88;4990134;28;20038;-62
2022/01/09 04:26:11;;;;;;;0.60;0.60;;;;;;;3.40;100.00;94946.19;4997006;28;20562;-64
2022/01/09 04:28:36;;;;;;;0.50;0.50;;;;;;;3.39;100.00;94974.41;4995585;28;20052;-64
2022/01/09 04:31:02;;;;;;;0.52;0.52;;;;;;;3.39;100.00;94979.81;5001632;28;20046;-63
2022/01/09 04:33:27;;;;;;;0.60;0.60;;;;;;;3.36;100.00;94969.72;5000056;28;20033;-65
2022/01/09 04:35:53;;;;;;;1.27;0.60;;;;;;;3.39;100.00;94982.53;5003436;28;20049;-64
2022/01/09 04:38:19;;;;;;;0.70;0.70;;;;;;;3.33;100.00;94983.97;4997722;28;20461;-64
2022/01/09 04:40:44;;;;;;;0.75;0.68;;;;;;;3.34;100.00;94974.72;4998759;28;20038;-63
2022/01/09 04:43:12;;;;;;;0.60;0.60;;;;;;;3.27;100.00;94978.06;4989823;28;20364;-64
2022/01/09 04:45:38;;;;;;;0.50;0.50;;;;;;;3.23;100.00;94993.47;5002312;28;20045;-63
2022/01/09 04:48:07;;;;;;;0.60;0.60;;;;;;;3.21;100.00;95012.78;4990638;28;20085;-65
2022/01/09 04:50:36;;;;;;;0.60;0.60;;;;;;;3.13;100.00;94991.38;4998941;28;20076;-64
2022/01/09 04:53:07;;;;;;;2.00;0.65;;;;;;;3.08;100.00;94988.94;5000610;28;20461;-65
2022/01/09 04:55:35;;;;;;;0.50;0.50;;;;;;;3.01;100.00;95006.63;4989425;28;20050;-63
2022/01/09 04:58:00;;;;;;;0.60;0.60;;;;;;;2.95;100.00;95045.13;4996219;28;20491;-64
2022/01/09 05:00:26;;;;;;;0.73;0.60;;;;;;;2.87;100.00;95023.38;4976949;28;20108;-64
2022/01/09 05:02:51;;;;;;;0.50;0.50;;;;;;;2.83;100.00;95002.81;4994041;28;20504;-64
2022/01/09 05:05:17;;;;;;;0.60;0.60;;;;;;;2.75;100.00;95042.44;4993122;28;20049;-64
2022/01/09 05:07:44;;;;;;;0.98;0.70;;;;;;;2.76;100.00;95038.63;5006195;28;20054;-63
2022/01/09 05:10:11;;;;;;;0.40;0.40;;;;;;;2.69;100.00;95057.41;4996482;28;20145;-64
2022/01/09 05:12:37;;;;;;;0.63;0.60;;;;;;;2.63;100.00;95048.78;5001562;28;20487;-64
2022/01/09 05:15:04;;;;;;;0.60;0.60;;;;;;;2.62;100.00;95085.06;4999767;28;20048;-62
2022/01/09 05:17:30;;;;;;;0.65;0.65;;;;;;;2.62;100.00;95095.88;4999722;28;20055;-64
2022/01/09 05:19:59;;;;;;;0.60;0.60;;;;;;;2.60;100.00;95113.59;5000849;28;20038;-62
2022/01/09 05:22:26;;;;;;;0.73;0.52;;;;;;;2.62;100.00;95108.59;4988051;28;20052;-63
2022/01/09 05:24:52;;;;;;;0.50;0.50;;;;;;;2.58;100.00;95110.47;5000891;28;20095;-63
2022/01/09 05:27:18;;;;;;;0.98;0.70;;;;;;;2.53;100.00;95108.81;4987706;28;20046;-64
2022/01/09 05:29:44;;;;;;;0.85;0.70;;;;;;;2.52;100.00;95142.38;4998411;28;20054;-64
2022/01/09 05:32:10;;;;;;;0.93;0.80;;;;;;;2.45;100.00;95140.31;5004024;28;20046;-63
2022/01/09 05:34:35;;;;;;;0.60;0.60;;;;;;;2.43;100.00;95153.38;4997982;28;20045;-65
2022/01/09 05:37:01;;;;;;;0.63;0.63;;;;;;;2.38;100.00;95140.16;4998189;28;20042;-65
2022/01/09 05:39:27;;;;;;;0.50;0.50;;;;;;;2.39;100.00;95162.53;4992700;28;20046;-64
2022/01/09 05:41:52;;;;;;;0.60;0.60;;;;;;;2.39;100.00;95170.66;4992654;28;20042;-65
2022/01/09 05:44:19;;;;;;;0.63;0.63;;;;;;;2.38;100.00;95166.38;4995565;28;20538;-62
2022/01/09 05:46:45;;;;;;;0.50;0.50;;;;;;;2.38;100.00;95177.19;4997181;28;20053;-62
2022/01/09 05:49:10;;;;;;;0.60;0.55;;;;;;;2.33;100.00;95180.16;4993635;28;20073;-64
2022/01/09 05:51:36;;;;;;;0.88;0.70;;;;;;;2.23;100.00;95184.97;5001137;28;20045;-66
2022/01/09 05:54:02;;;;;;;0.73;0.60;;;;;;;2.20;100.00;95199.16;5009517;28;20046;-64
2022/01/09 05:56:28;;;;;;;0.70;0.70;;;;;;;2.13;100.00;95193.59;4995743;28;20045;-65
2022/01/09 05:58:53;;;;;;;0.60;0.60;;;;;;;2.06;100.00;95205.00;5002757;28;20367;-65
2022/01/09 06:01:19;;;;;;;0.60;0.60;;;;;;;1.99;100.00;95221.00;4990886;28;20128;-64
2022/01/09 06:03:44;;;;;;;1.20;1.05;;;;;;;1.86;100.00;95216.84;4998878;28;20079;-64
2022/01/09 06:06:10;;;;;;;0.60;0.60;;;;;;;1.84;100.00;95229.91;4977010;28;20046;-63
2022/01/09 06:08:35;;;;;;;0.93;0.80;;;;;;;1.79;100.00;95230.16;4996745;28;20050;-63
2022/01/09 06:11:01;;;;;;;1.20;1.13;;;;;;;1.81;100.00;95223.25;4995820;28;20042;-65
2022/01/09 06:13:26;;;;;;;1.08;0.98;;;;;;;1.81;100.00;95236.75;4989305;28;20041;-65
2022/01/09 06:15:52;;;;;;;1.95;0.80;;;;;;;1.77;100.00;95252.09;4997637;28;20100;-65
2022/01/09 06:18:20;;;;;;;1.88;0.82;;;;;;;1.75;100.00;95238.16;4994167;28;20590;-65
2022/01/09 06:20:47;;;;;;;3.05;0.60;;;;;;;1.83;100.00;95241.81;4983026;28;20443;-65
2022/01/09 06:23:12;;;;;;;0.70;0.70;;;;;;;1.89;100.00;95248.53;4991175;28;20526;-65
2022/01/09 06:25:38;;;;;;;0.65;0.65;;;;;;;1.89;100.00;95243.91;4980798;28;20074;-67
2022/01/09 06:28:03;;;;;;;0.75;0.75;;;;;;;1.85;100.00;95261.94;4980509;28;20651;-64
2022/01/09 06:30:29;;;;;;;1.65;0.60;;;;;;;1.87;100.00;95265.09;4991549;28;20431;-64
2022/01/09 06:32:55;;;;;;;3.72;0.90;;;;;;;1.88;100.00;95257.75;5009494;28;20100;-64
2022/01/09 06:35:20;;;;;;;0.70;0.70;;;;;;;1.94;100.00;95250.97;4993012;28;20042;-65
2022/01/09 06:37:45;;;;;;;1.35;0.77;;;;;;;1.97;100.00;95277.28;5004620;28;20114;-65
2022/01/09 06:40:11;;;;;;;0.60;0.60;;;;;;;1.91;100.00;95279.47;4979721;28;20049;-65
2022/01/09 06:42:38;;;;;;;0.60;0.47;;;;;;;1.88;100.00;95282.06;4981916;28;20050;-64
2022/01/09 06:45:05;;;;;;;0.65;0.65;;;;;;;1.90;100.00;95285.97;4977441;28;20038;-65
2022/01/09 06:47:30;;;;;;;0.65;0.65;;;;;;;1.92;100.00;95291.81;4992869;28;20046;-65
2022/01/09 06:49:56;;;;;;;0.77;0.70;;;;;;;1.91;100.00;95298.38;4999992;28;20058;-65
2022/01/09 06:52:21;;;;;;;0.60;0.60;;;;;;;1.85;100.00;95305.13;4995596;28;20077;-65
2022/01/09 06:54:47;;;;;;;1.10;0.60;;;;;;;1.88;100.00;95300.97;5001423;28;20049;-64
2022/01/09 06:57:12;;;;;;;0.73;0.73;;;;;;;1.88;100.00;95293.63;4992638;28;20125;-64
2022/01/09 06:59:38;;;;;;;1.90;0.80;;;;;;;1.84;100.00;95319.75;4995338;28;20042;-65
2022/01/09 07:02:04;;;;;;;1.27;0.80;;;;;;;1.87;100.00;95323.69;4998971;28;20049;-64
2022/01/09 07:04:29;;;;;;;2.28;0.80;;;;;;;1.94;100.00;95321.19;4992941;28;20038;-64
2022/01/09 07:06:55;;;;;;;2.03;0.90;;;;;;;1.90;100.00;95339.97;4985017;28;20042;-64
2022/01/09 07:09:22;;;;;;;1.80;0.82;;;;;;;1.90;100.00;95344.59;4986374;28;20503;-62
2022/01/09 07:11:48;;;;;;;3.20;0.95;;;;;;;1.88;100.00;95338.75;4999304;28;20295;-64
2022/01/09 07:14:14;;;;;;;2.85;0.80;;;;;;;1.86;100.00;95332.94;4993833;28;20092;-64
2022/01/09 07:16:39;;;;;;;4.45;1.00;;;;;;;1.91;100.00;95355.06;5003732;28;20092;-68
2022/01/09 07:19:05;;;;;;;1.75;0.80;;;;;;;1.90;100.00;95361.59;4998483;28;20078;-64
2022/01/09 07:21:31;;;;;;;2.72;1.02;;;;;;;1.87;100.00;95364.19;5004640;28;20052;-64
2022/01/09 07:23:56;;;;;;;6.93;1.30;;;;;;;1.93;100.00;95362.81;5002996;28;20050;-64
2022/01/09 07:26:21;;;;;;;1.77;0.93;;;;;;;1.93;100.00;95376.31;4997572;28;20053;-64
2022/01/09 07:28:47;;;;;;;2.58;1.00;;;;;;;1.97;100.00;95381.81;4995460;28;20698;-64
2022/01/09 07:31:12;;;;;;;1.70;1.17;;;;;;;1.93;100.00;95379.03;4995100;28;20042;-64
2022/01/09 07:33:38;;;;;;;4.90;1.08;;;;;;;1.99;100.00;95398.47;4986767;28;20054;-64
2022/01/09 07:36:04;;;;;;;5.30;1.23;;;;;;;1.99;100.00;95393.06;4999248;28;20410;-64
2022/01/09 07:38:29;;;;;;;6.30;1.60;;;;;;;1.96;100.00;95415.34;4995505;28;20053;-65
2022/01/09 07:40:55;;;;;;;5.05;1.30;;;;;;;1.96;100.00;95418.81;5000715;28;20140;-65
2022/01/09 07:43:20;;;;;;;4.13;1.60;;;;;;;1.92;100.00;95417.94;4989016;28;20049;-65
2022/01/09 07:45:46;;;;;;;1.05;0.88;;;;;;;1.95;100.00;95433.47;5017831;28;20041;-65
2022/01/09 07:48:12;;;;;;;3.72;1.05;;;;;;;1.99;100.00;95426.25;4999028;28;20050;-64
2022/01/09 07:50:37;;;;;;;4.97;1.50;;;;;;;1.97;100.00;95442.00;4983907;28;20102;-65
2022/01/09 07:53:03;;;;;;;8.43;1.30;;;;;;;1.97;100.00;95450.13;4981190;28;20070;-64
2022/01/09 07:55:28;;;;;;;3.55;0.98;;;;;;;2.06;100.00;95450.00;4992522;28;20049;-65
2022/01/09 07:57:54;;;;;;;7.18;1.58;;;;;;;2.07;100.00;95446.13;5005841;28;20043;-65
2022/01/09 08:00:20;;;;;;;4.18;1.30;;;;;;;2.09;100.00;95457.41;5001413;28;20112;-64
2022/01/09 08:02:47;;;;;;;3.15;1.13;;;;;;;2.12;100.00;95447.81;5003181;28;20033;-64
2022/01/09 08:05:14;;;;;;;4.13;1.50;;;;;;;2.12;100.00;95462.09;4989911;28;20038;-65
2022/01/09 08:07:40;;;;;;;4.05;1.30;;;;;;;2.13;100.00;95460.22;4998781;28;20120;-64
2022/01/09 08:10:07;;;;;;;3.28;0.77;;;;;;;2.15;100.00;95469.53;4989884;28;20443;-65
2022/01/09 08:12:32;;;;;;;4.22;1.27;;;;;;;2.14;100.00;95475.28;4995223;28;20427;-64
2022/01/09 08:14:58;;;;;;;4.93;1.13;;;;;;;2.20;100.00;95473.94;5007623;28;20111;-65
2022/01/09 08:17:24;;;;;;;5.75;1.15;;;;;;;2.17;100.00;95471.91;4997379;28;20038;-65
2022/01/09 08:19:50;;;;;;;1.52;0.90;;;;;;;2.26;100.00;95472.53;5000103;28;20050;-66
2022/01/09 08:22:15;;;;;;;5.80;0.80;;;;;;;2.26;100.00;95476.03;4993865;28;20403;-65
2022/01/09 08:24:41;;;;;;;4.13;1.33;;;;;;;2.27;100.00;95474.91;5001251;28;20168;-64
2022/01/09 08:27:08;;;;;;;3.90;1.05;;;;;;;2.29;100.00;95490.78;4991109;28;20054;-65
2022/01/09 08:29:34;;;;;;;3.17;1.38;;;;;;;2.34;100.00;95495.13;4991343;28;20050;-64
2022/01/09 08:32:01;;;;;;;6.22;1.55;;;;;;;2.29;100.00;95488.84;4994744;28;20080;-65
2022/01/09 08:34:27;;;;;;;5.03;1.50;;;;;;;2.21;100.00;95500.56;4996404;28;20038;-64
2022/01/09 08:36:52;;;;;;;4.15;1.15;;;;;;;2.24;100.00;95499.13;5000438;28;20042;-62
2022/01/09 08:39:18;;;;;;;4.45;1.20;;;;;;;2.31;99.86;95483.13;4994436;28;20053;-65
2022/01/09 08:41:43;;;;;;;5.57;1.25;;;;;;;2.27;98.99;95506.56;4994701;28;20062;-64
2022/01/09 08:44:09;;;;;;;2.88;1.30;;;;;;;2.29;98.73;95494.25;4998132;28;20050;-64
2022/01/09 08:46:36;;;;;;;3.25;0.98;;;;;;;2.30;98.07;95508.56;4994743;28;20140;-65
2022/01/09 08:49:04;;;;;;;6.22;1.20;;;;;;;2.22;99.58;95510.28;5003119;28;20407;-65
2022/01/09 08:51:30;;;;;;;5.57;1.20;;;;;;;2.30;98.60;95497.75;4999376;28;20046;-64
2022/01/09 08:53:56;;;;;;;4.32;1.17;;;;;;;2.27;98.91;95506.56;4995355;28;20116;-64
2022/01/09 08:56:23;;;;;;;3.58;1.30;;;;;;;2.23;98.81;95511.84;4998741;28;21016;-65
2022/01/09 08:58:49;;;;;;;4.20;1.40;;;;;;;2.28;99.42;95513.50;5004140;28;20042;-64
2022/01/09 09:01:15;;;;;;;9.30;1.90;;;;;;;2.21;100.00;95526.81;4997602;28;20042;-65
2022/01/09 09:03:41;;;;;;;3.08;1.00;;;;;;;2.23;99.66;95517.25;4999427;28;20073;-64
2022/01/09 09:06:12;;;;;;;6.05;1.30;;;;;;;2.22;100.00;95526.47;4991080;28;20084;-65
2022/01/09 09:08:38;;;;;;;3.22;1.10;;;;;;;2.31;100.00;95528.28;5002301;28;20042;-66
2022/01/09 09:11:05;;;;;;;3.78;1.35;;;;;;;2.34;99.62;95514.88;4991296;28;20050;-62
2022/01/09 09:13:31;;;;;;;3.20;1.17;;;;;;;2.35;98.73;95537.25;5005409;28;20041;-66
2022/01/09 09:15:57;;;;;;;5.10;1.77;;;;;;;2.39;98.49;95530.03;5001856;28;20038;-65
2022/01/09 09:18:22;;;;;;;7.72;1.27;;;;;;;2.42;97.29;95535.53;4997418;28;20176;-66
2022/01/09 09:20:48;;;;;;;4.72;1.13;;;;;;;2.50;97.12;95541.94;5011147;28;20057;-65
2022/01/09 09:23:13;;;;;;;7.90;1.77;;;;;;;2.45;96.73;95542.19;4997540;28;20053;-65
2022/01/09 09:25:39;;;;;;;3.88;1.10;;;;;;;2.48;96.23;95545.00;5001875;28;20402;-65
2022/01/09 09:28:05;;;;;;;15.25;2.45;;;;;;;2.54;95.63;95552.84;4998091;28;20049;-64
2022/01/09 09:30:30;;;;;;;4.25;1.20;;;;;;;2.56;95.62;95561.44;5000382;28;20038;-66
2022/01/09 09:32:56;;;;;;;4.10;1.33;;;;;;;2.58;95.76;95541.03;4993898;28;20042;-65
2022/01/09 09:35:22;;;;;;;4.55;1.75;;;;;;;2.66;95.11;95566.31;4997157;28;20958;-64
2022/01/09 09:37:47;;;;;;;8.05;1.23;;;;;;;2.85;93.32;95563.78;5000019;28;20034;-65
2022/01/09 09:40:13;;;;;;;5.65;1.88;;;;;;;2.97;93.20;95554.03;4996422;28;20068;-65
2022/01/09 09:42:39;;;;;;;10.60;1.42;;;;;;;3.42;90.51;95572.66;5001971;28;20052;-65
2022/01/09 09:45:10;;;;;;;8.15;1.88;;;;;;;4.28;88.43;95579.31;5005210;28;20053;-65
2022/01/09 09:47:37;;;;;;;7.80;1.50;;;;;;;4.72;83.36;95564.78;5000181;28;20057;-66
2022/01/09 09:50:06;;;;;;;6.68;1.63;;;;;;;4.98;81.69;95589.31;5002344;28;20053;-64
2022/01/09 09:52:32;;;;;;;5.18;1.40;;;;;;;5.20;79.27;95575.38;5016630;28;20038;-65
2022/01/09 09:54:58;;;;;;;4.30;1.10;;;;;;;5.48;78.80;95583.28;5001927;28;20049;-65
2022/01/09 09:57:24;;;;;;;4.00;1.00;;;;;;;5.89;78.17;95591.75;4996468;28;20042;-64
2022/01/09 10:00:05;;;;;;;5.32;1.10;;;;;;;5.57;77.54;95591.19;4998438;28;20120;-65
2022/01/09 10:02:46;;;;;;;4.22;1.08;;;;;;;5.09;77.35;95588.75;4993518;28;20065;-64
2022/01/09 10:05:15;;;;;;;4.43;1.10;;;;;;;5.57;77.96;95591.97;4996050;28;20135;-64
2022/01/09 10:07:41;;;;;;;5.27;1.50;;;;;;;5.66;76.36;95578.94;5001542;28;20042;-64
2022/01/09 10:10:14;;;;;;;4.07;1.10;;;;;;;4.91;78.47;95572.13;4995627;28;20313;-64
2022/01/09 10:12:41;;;;;;;3.75;1.20;;;;;;;5.21;78.07;95587.84;5016307;28;20045;-65
2022/01/09 10:15:17;;;;;;;3.28;1.38;;;;;;;5.35;75.78;95583.44;4995194;28;20069;-65
2022/01/09 10:17:50;;;;;;;3.67;1.45;;;;;;;5.60;75.80;95582.31;4991368;28;20050;-65
2022/01/09 10:20:34;;;;;;;5.78;1.92;;;;;;;6.17;73.90;95588.72;4995960;28;20052;-65
2022/01/09 10:22:59;;;;;;;5.38;1.27;;;;;;;6.18;72.97;95579.44;5000686;28;20044;-65
2022/01/09 10:25:33;;;;;;;5.07;1.20;;;;;;;6.50;72.87;95590.78;4998850;28;24066;-64
2022/01/09 10:28:12;;;;;;;6.93;1.50;;;;;;;5.94;74.02;95596.88;5005164;28;20145;-64
2022/01/09 10:30:39;;;;;;;4.35;1.33;;;;;;;5.20;76.50;95591.69;5015190;28;20052;-64
2022/01/09 10:33:09;;;;;;;3.58;1.00;;;;;;;4.95;79.19;95598.19;5008604;28;20069;-64
2022/01/09 10:35:37;;;;;;;7.55;1.65;;;;;;;4.77;80.90;95581.56;5005341;28;20507;-64
2022/01/09 10:38:29;;;;;;;7.60;1.30;;;;;;;4.16;83.30;95593.78;5002404;28;20491;-62
2022/01/09 10:40:57;;;;;;;5.80;1.30;;;;;;;4.20;85.65;95591.94;4999350;28;20046;-64
2022/01/09 10:43:26;;;;;;;3.63;1.40;;;;;;;4.11;85.43;95596.75;4992256;28;20125;-64
2022/01/09 10:45:59;;;;;;;6.90;1.45;;;;;;;4.02;86.88;95588.81;4999682;28;20030;-64
2022/01/09 10:48:42;;;;;;;5.47;1.30;;;;;;;3.93;89.78;95582.78;4987308;28;20060;-65
2022/01/09 10:51:10;;;;;;;7.20;1.50;;;;;;;3.98;89.57;95576.28;4980200;28;20132;-63
2022/01/09 10:53:41;;;;;;;6.80;1.38;;;;;;;3.97;90.51;95572.03;4992413;28;20420;-63
2022/01/09 10:56:18;;;;;;;4.07;1.35;;;;;;;4.06;88.52;95577.28;4997808;28;20129;-63
2022/01/09 10:58:48;;;;;;;6.88;1.38;;;;;;;4.10;87.88;95583.56;4995035;28;20050;-64
2022/01/09 11:01:28;;;;;;;6.07;1.40;;;;;;;4.48;86.59;95573.94;4997321;28;20045;-65
2022/01/09 11:03:55;;;;;;;2.35;0.93;;;;;;;4.82;81.98;95582.41;5004397;28;20041;-65
2022/01/09 11:06:22;;;;;;;5.72;1.08;;;;;;;4.82;80.42;95574.25;5005055;28;20092;-65
2022/01/09 11:08:50;;;;;;;5.13;1.05;;;;;;;4.59;80.99;95570.31;5000940;28;20046;-64
2022/01/09 11:13:47;;;;;;;4.57;1.45;;;;;;;4.45;82.24;95566.50;4984731;28;20043;-65
2022/01/09 11:16:33;;;;;;;4.20;1.10;;;;;;;4.71;80.31;95553.13;4979874;28;20140;-65
2022/01/09 11:19:12;;;;;;;2.88;0.80;;;;;;;4.64;79.20;95569.25;4982469;28;20046;-64
2022/01/09 11:21:41;;;;;;;4.13;1.05;;;;;;;4.66;79.52;95566.97;4984386;28;20046;-64
2022/01/09 11:24:25;;;;;;;5.80;1.23;;;;;;;4.50;80.18;95561.63;4995550;28;20049;-63
2022/01/09 11:27:06;;;;;;;2.60;1.27;;;;;;;4.47;80.78;95569.66;5005316;28;20081;-64
2022/01/09 11:29:37;;;;;;;1.88;1.10;;;;;;;4.55;80.25;95563.25;5011674;28;20490;-64
2022/01/09 11:32:25;;;;;;;3.70;1.30;;;;;;;4.34;82.05;95555.44;4995969;28;20041;-63
2022/01/09 11:35:18;;;;;;;7.10;1.70;;;;;;;4.90;80.82;95565.91;5004122;28;20498;-63
2022/01/09 11:38:04;;;;;;;5.88;1.40;;;;;;;5.23;78.10;95555.69;5002600;28;20038;-63